Time,TemperatureF,DewpointF,PressureIn,WindDirection,WindDirectionDegrees,WindSpeedMPH,WindSpeedGustMPH,Humidity,HourlyPrecipIn,Conditions,Clouds,dailyrainin,SoftwareType,DateUTC
2013-01-22 00:00:00,9.3,-2.9,30.21,WNW,297,5.0,5.0,57,0.00,,,0.00,Wunderground v.1.13,2013-01-22 05:00:00,
2013-01-22 00:01:00,9.3,-2.9,30.21,WNW,297,2.0,5.0,57,0.00,,,0.00,Wunderground v.1.13,2013-01-22 05:01:00,
2013-01-22 00:04:00,9.3,-2.5,30.21,WNW,303,3.0,5.0,58,0.00,,,0.00,Wunderground v.1.13,2013-01-22 05:04:00,
2013-01-22 00:06:00,9.3,-2.5,30.21,WNW,303,2.0,3.0,58,0.00,,,0.00,Wunderground v.1.13,2013-01-22 05:06:00,
2013-01-22 00:11:00,9.3,-1.8,30.21,WSW,246,3.0,3.0,60,0.00,,,0.00,Wunderground v.1.13,2013-01-22 05:11:00,
2013-01-22 00:16:00,9.2,-1.9,30.22,WSW,250,3.0,4.0,60,0.00,,,0.00,Wunderground v.1.13,2013-01-22 05:16:00,
2013-01-22 00:21:00,9.2,-1.5,30.22,West,269,5.0,5.0,61,0.00,,,0.00,Wunderground v.1.13,2013-01-22 05:21:00,
2013-01-22 00:27:00,9.2,-1.5,30.22,WSW,249,4.0,4.0,61,0.00,,,0.00,Wunderground v.1.13,2013-01-22 05:27:00,
2013-01-22 00:33:00,9.2,-1.5,30.22,WSW,258,4.0,4.0,61,0.00,,,0.00,Wunderground v.1.13,2013-01-22 05:33:00,
2013-01-22 00:39:00,9.0,-2.1,30.22,West,264,2.0,6.0,60,0.00,,,0.00,Wunderground v.1.13,2013-01-22 05:39:00,
2013-01-22 00:46:00,9.0,-2.1,30.22,West,264,4.0,4.0,60,0.00,,,0.00,Wunderground v.1.13,2013-01-22 05:46:00,
2013-01-22 00:51:00,8.8,-2.3,30.22,West,264,3.0,4.0,60,0.00,,,0.00,Wunderground v.1.13,2013-01-22 05:51:00,
2013-01-22 00:56:00,8.8,-1.9,30.22,West,264,2.0,3.0,61,0.00,,,0.00,Wunderground v.1.13,2013-01-22 05:56:00,
2013-01-22 01:01:00,8.8,-2.3,30.22,West,264,2.0,3.0,60,0.00,,,0.00,Wunderground v.1.13,2013-01-22 06:01:00,
2013-01-22 01:07:00,8.6,-2.8,30.22,West,281,1.0,4.0,59,0.00,,,0.00,Wunderground v.1.13,2013-01-22 06:07:00,
2013-01-22 01:13:00,8.6,-3.2,30.22,West,259,4.0,4.0,58,0.00,,,0.00,Wunderground v.1.13,2013-01-22 06:13:00,
2013-01-22 01:18:00,8.6,-3.2,30.22,WNW,291,6.0,7.0,58,0.00,,,0.00,Wunderground v.1.13,2013-01-22 06:18:00,
2013-01-22 01:24:00,8.6,-3.2,30.22,WSW,257,4.0,4.0,58,0.00,,,0.00,Wunderground v.1.13,2013-01-22 06:24:00,
2013-01-22 01:31:00,8.4,-3.7,30.22,West,279,3.0,5.0,57,0.00,,,0.00,Wunderground v.1.13,2013-01-22 06:31:00,
2013-01-22 01:36:00,8.4,-3.4,30.22,West,265,3.0,3.0,58,0.00,,,0.00,Wunderground v.1.13,2013-01-22 06:36:00,
2013-01-22 01:41:00,8.4,-3.4,30.22,West,265,2.0,3.0,58,0.00,,,0.00,Wunderground v.1.13,2013-01-22 06:41:00,
2013-01-22 01:47:00,8.4,-3.4,30.22,West,266,3.0,6.0,58,0.00,,,0.00,Wunderground v.1.13,2013-01-22 06:47:00,
2013-01-22 01:53:00,8.4,-3.0,30.22,WSW,246,3.0,3.0,59,0.00,,,0.00,Wunderground v.1.13,2013-01-22 06:53:00,
2013-01-22 01:58:00,8.4,-3.0,30.23,WSW,246,2.0,3.0,59,0.00,,,0.00,Wunderground v.1.13,2013-01-22 06:58:00,
2013-01-22 02:03:00,8.4,-3.0,30.23,WSW,246,2.0,4.0,59,0.00,,,0.00,Wunderground v.1.13,2013-01-22 07:03:00,
2013-01-22 02:08:00,8.4,-3.4,30.23,WSW,251,3.0,6.0,58,0.00,,,0.00,Wunderground v.1.13,2013-01-22 07:08:00,
2013-01-22 02:13:00,8.4,-3.0,30.23,WSW,251,5.0,6.0,59,0.00,,,0.00,Wunderground v.1.13,2013-01-22 07:13:00,
2013-01-22 02:18:00,8.4,-3.0,30.23,WSW,251,4.0,7.0,59,0.00,,,0.00,Wunderground v.1.13,2013-01-22 07:18:00,
2013-01-22 02:23:00,8.4,-3.0,30.23,WSW,251,3.0,4.0,59,0.00,,,0.00,Wunderground v.1.13,2013-01-22 07:23:00,
2013-01-22 02:28:00,8.3,-3.1,30.23,WSW,251,6.0,6.0,59,0.00,,,0.00,Wunderground v.1.13,2013-01-22 07:28:00,
2013-01-22 02:34:00,8.3,-3.5,30.23,WSW,251,3.0,5.0,58,0.00,,,0.00,Wunderground v.1.13,2013-01-22 07:34:00,
2013-01-22 02:38:00,8.3,-3.5,30.23,WSW,254,4.0,10.0,58,0.00,,,0.00,Wunderground v.1.13,2013-01-22 07:38:00,
2013-01-22 02:44:00,8.3,-3.5,30.24,WSW,254,5.0,5.0,58,0.00,,,0.00,Wunderground v.1.13,2013-01-22 07:44:00,
2013-01-22 02:49:00,8.1,-4.0,30.24,WNW,287,2.0,6.0,57,0.00,,,0.00,Wunderground v.1.13,2013-01-22 07:49:00,
2013-01-22 02:54:00,8.1,-4.0,30.24,WSW,238,9.0,10.0,57,0.00,,,0.00,Wunderground v.1.13,2013-01-22 07:54:00,
2013-01-22 02:59:00,8.1,-4.0,30.24,WNW,283,1.0,9.0,57,0.00,,,0.00,Wunderground v.1.13,2013-01-22 07:59:00,
2013-01-22 03:04:00,8.1,-3.6,30.24,WSW,246,5.0,9.0,58,0.00,,,0.00,Wunderground v.1.13,2013-01-22 08:04:00,
2013-01-22 03:09:00,7.9,-3.8,30.24,West,265,3.0,9.0,58,0.00,,,0.00,Wunderground v.1.13,2013-01-22 08:09:00,
2013-01-22 03:14:00,7.9,-3.5,30.24,West,267,2.0,5.0,59,0.00,,,0.00,Wunderground v.1.13,2013-01-22 08:14:00,
2013-01-22 03:19:00,7.9,-3.5,30.24,SW,236,5.0,11.0,59,0.00,,,0.00,Wunderground v.1.13,2013-01-22 08:19:00,
2013-01-22 03:24:00,7.9,-3.1,30.24,SW,236,3.0,7.0,60,0.00,,,0.00,Wunderground v.1.13,2013-01-22 08:24:00,
2013-01-22 03:29:00,7.9,-3.1,30.25,WSW,249,7.0,7.0,60,0.00,,,0.00,Wunderground v.1.13,2013-01-22 08:29:00,
2013-01-22 03:34:00,7.7,-3.7,30.25,WSW,250,3.0,5.0,59,0.00,,,0.00,Wunderground v.1.13,2013-01-22 08:34:00,
2013-01-22 03:39:00,7.7,-4.0,30.25,West,267,2.0,5.0,58,0.00,,,0.00,Wunderground v.1.13,2013-01-22 08:39:00,
2013-01-22 03:44:00,7.7,-3.7,30.25,West,267,1.0,5.0,59,0.00,,,0.00,Wunderground v.1.13,2013-01-22 08:44:00,
2013-01-22 03:49:00,7.7,-3.7,30.25,West,267,5.0,5.0,59,0.00,,,0.00,Wunderground v.1.13,2013-01-22 08:49:00,
2013-01-22 03:54:00,7.6,-3.4,30.25,West,267,3.0,6.0,60,0.00,,,0.00,Wunderground v.1.13,2013-01-22 08:54:00,
2013-01-22 03:59:00,7.6,-3.4,30.24,West,266,4.0,6.0,60,0.00,,,0.00,Wunderground v.1.13,2013-01-22 08:59:00,
2013-01-22 04:04:00,7.6,-3.4,30.24,WNW,283,2.0,7.0,60,0.00,,,0.00,Wunderground v.1.13,2013-01-22 09:04:00,
2013-01-22 04:09:00,7.4,-3.6,30.24,WSW,249,4.0,9.0,60,0.00,,,0.00,Wunderground v.1.13,2013-01-22 09:09:00,
2013-01-22 04:14:00,7.4,-3.6,30.24,WSW,257,1.0,4.0,60,0.00,,,0.00,Wunderground v.1.13,2013-01-22 09:14:00,
2013-01-22 04:19:00,7.4,-3.3,30.24,WSW,257,1.0,6.0,61,0.00,,,0.00,Wunderground v.1.13,2013-01-22 09:19:00,
2013-01-22 04:24:00,7.4,-3.3,30.24,WSW,257,4.0,5.0,61,0.00,,,0.00,Wunderground v.1.13,2013-01-22 09:24:00,
2013-01-22 04:29:00,7.4,-3.3,30.25,West,260,4.0,7.0,61,0.00,,,0.00,Wunderground v.1.13,2013-01-22 09:29:00,
2013-01-22 04:34:00,7.2,-3.4,30.25,WSW,244,6.0,10.0,61,0.00,,,0.00,Wunderground v.1.13,2013-01-22 09:34:00,
2013-01-22 04:39:00,7.2,-3.8,30.25,WSW,254,3.0,5.0,60,0.00,,,0.00,Wunderground v.1.13,2013-01-22 09:39:00,
2013-01-22 04:44:00,7.2,-3.8,30.25,SW,219,3.0,7.0,60,0.00,,,0.00,Wunderground v.1.13,2013-01-22 09:44:00,
2013-01-22 04:49:00,7.2,-3.8,30.25,WSW,241,4.0,9.0,60,0.00,,,0.00,Wunderground v.1.13,2013-01-22 09:49:00,
2013-01-22 04:55:00,7.2,-3.4,30.25,WSW,241,3.0,5.0,61,0.00,,,0.00,Wunderground v.1.13,2013-01-22 09:55:00,
2013-01-22 05:00:00,7.0,-4.0,30.25,WSW,247,5.0,5.0,60,0.00,,,0.00,Wunderground v.1.13,2013-01-22 10:00:00,
2013-01-22 05:05:00,7.0,-3.6,30.25,WSW,248,2.0,4.0,61,0.00,,,0.00,Wunderground v.1.13,2013-01-22 10:05:00,
2013-01-22 05:10:00,7.0,-3.6,30.25,West,264,2.0,4.0,61,0.00,,,0.00,Wunderground v.1.13,2013-01-22 10:10:00,
2013-01-22 05:16:00,6.9,-4.1,30.26,SW,230,7.0,7.0,60,0.00,,,0.00,Wunderground v.1.13,2013-01-22 10:16:00,
2013-01-22 05:21:00,6.9,-4.1,30.26,West,260,4.0,5.0,60,0.00,,,0.00,Wunderground v.1.13,2013-01-22 10:21:00,
2013-01-22 05:26:00,6.9,-4.1,30.26,WSW,248,3.0,5.0,60,0.00,,,0.00,Wunderground v.1.13,2013-01-22 10:26:00,
2013-01-22 05:31:00,6.9,-3.7,30.26,WSW,248,5.0,6.0,61,0.00,,,0.00,Wunderground v.1.13,2013-01-22 10:31:00,
2013-01-22 05:36:00,6.9,-3.7,30.26,West,260,3.0,4.0,61,0.00,,,0.00,Wunderground v.1.13,2013-01-22 10:36:00,
2013-01-22 05:41:00,6.7,-3.9,30.26,West,261,4.0,5.0,61,0.00,,,0.00,Wunderground v.1.13,2013-01-22 10:41:00,
2013-01-22 05:46:00,6.7,-4.3,30.27,West,260,5.0,6.0,60,0.00,,,0.00,Wunderground v.1.13,2013-01-22 10:46:00,
2013-01-22 05:51:00,6.7,-3.9,30.27,WSW,253,3.0,5.0,61,0.00,,,0.00,Wunderground v.1.13,2013-01-22 10:51:00,
2013-01-22 05:56:00,6.7,-3.9,30.27,WSW,244,4.0,6.0,61,0.00,,,0.00,Wunderground v.1.13,2013-01-22 10:56:00,
2013-01-22 06:01:00,6.5,-4.1,30.27,WSW,246,3.0,5.0,61,0.00,,,0.00,Wunderground v.1.13,2013-01-22 11:01:00,
2013-01-22 06:06:00,6.5,-3.8,30.27,WSW,246,2.0,4.0,62,0.00,,,0.00,Wunderground v.1.13,2013-01-22 11:06:00,
2013-01-22 06:11:00,6.5,-3.8,30.27,WSW,246,5.0,5.0,62,0.00,,,0.00,Wunderground v.1.13,2013-01-22 11:11:00,
2013-01-22 06:17:00,6.5,-3.8,30.28,WSW,246,3.0,5.0,62,0.00,,,0.00,Wunderground v.1.13,2013-01-22 11:17:00,
2013-01-22 06:22:00,6.5,-4.1,30.28,WSW,246,3.0,6.0,61,0.00,,,0.00,Wunderground v.1.13,2013-01-22 11:22:00,
2013-01-22 06:27:00,6.3,-4.3,30.28,WSW,246,2.0,6.0,61,0.00,,,0.00,Wunderground v.1.13,2013-01-22 11:27:00,
2013-01-22 06:32:00,6.3,-4.3,30.29,WSW,246,2.0,3.0,61,0.00,,,0.00,Wunderground v.1.13,2013-01-22 11:32:00,
2013-01-22 06:37:00,6.3,-4.0,30.29,WSW,246,3.0,8.0,62,0.00,,,0.00,Wunderground v.1.13,2013-01-22 11:37:00,
2013-01-22 06:42:00,6.3,-3.6,30.29,WSW,246,3.0,4.0,63,0.00,,,0.00,Wunderground v.1.13,2013-01-22 11:42:00,
2013-01-22 06:47:00,6.3,-3.6,30.29,WSW,246,3.0,5.0,63,0.00,,,0.00,Wunderground v.1.13,2013-01-22 11:47:00,
2013-01-22 06:52:00,6.1,-3.8,30.29,WNW,292,3.0,6.0,63,0.00,,,0.00,Wunderground v.1.13,2013-01-22 11:52:00,
2013-01-22 06:57:00,6.0,-4.2,30.29,WNW,291,2.0,5.0,62,0.00,,,0.00,Wunderground v.1.13,2013-01-22 11:57:00,
2013-01-22 07:02:00,6.0,-4.2,30.30,WNW,298,2.0,5.0,62,0.00,,,0.00,Wunderground v.1.13,2013-01-22 12:02:00,
2013-01-22 07:07:00,6.0,-4.2,30.30,WNW,300,6.0,6.0,62,0.00,,,0.00,Wunderground v.1.13,2013-01-22 12:07:00,
2013-01-22 07:12:00,5.8,-4.4,30.30,WNW,290,2.0,4.0,62,0.00,,,0.00,Wunderground v.1.13,2013-01-22 12:12:00,
2013-01-22 07:17:00,5.8,-4.1,30.30,WNW,290,1.0,3.0,63,0.00,,,0.00,Wunderground v.1.13,2013-01-22 12:17:00,
2013-01-22 07:22:00,5.8,-4.1,30.30,WNW,290,2.0,3.0,63,0.00,,,0.00,Wunderground v.1.13,2013-01-22 12:22:00,
2013-01-22 07:27:00,5.8,-3.8,30.31,WNW,290,1.0,4.0,64,0.00,,,0.00,Wunderground v.1.13,2013-01-22 12:27:00,
2013-01-22 07:32:00,5.8,-3.8,30.31,West,265,4.0,10.0,64,0.00,,,0.00,Wunderground v.1.13,2013-01-22 12:32:00,
2013-01-22 07:37:00,5.8,-4.1,30.31,WNW,295,6.0,9.0,63,0.00,,,0.00,Wunderground v.1.13,2013-01-22 12:37:00,
2013-01-22 07:42:00,5.6,-4.6,30.31,SW,228,2.0,6.0,62,0.00,,,0.00,Wunderground v.1.13,2013-01-22 12:42:00,
2013-01-22 07:47:00,5.6,-4.6,30.31,SW,229,2.0,4.0,62,0.00,,,0.00,Wunderground v.1.13,2013-01-22 12:47:00,
2013-01-22 07:53:00,5.6,-4.3,30.31,West,278,12.0,12.0,63,0.00,,,0.00,Wunderground v.1.13,2013-01-22 12:53:00,
2013-01-22 07:57:00,5.6,-4.6,30.32,WNW,296,4.0,4.0,62,0.00,,,0.00,Wunderground v.1.13,2013-01-22 12:57:00,
2013-01-22 08:03:00,5.6,-5.0,30.32,WNW,288,6.0,7.0,61,0.00,,,0.00,Wunderground v.1.13,2013-01-22 13:03:00,
2013-01-22 08:08:00,5.6,-5.0,30.32,WNW,288,1.0,4.0,61,0.00,,,0.00,Wunderground v.1.13,2013-01-22 13:08:00,
2013-01-22 08:13:00,5.6,-5.0,30.33,NW,310,1.0,8.0,61,0.00,,,0.00,Wunderground v.1.13,2013-01-22 13:13:00,
2013-01-22 08:18:00,5.8,-4.8,30.33,West,269,2.0,6.0,61,0.00,,,0.00,Wunderground v.1.13,2013-01-22 13:18:00,
2013-01-22 08:23:00,5.8,-4.8,30.33,WNW,294,4.0,6.0,61,0.00,,,0.00,Wunderground v.1.13,2013-01-22 13:23:00,
2013-01-22 08:29:00,6.0,-4.2,30.34,SW,236,4.0,6.0,62,0.00,,,0.00,Wunderground v.1.13,2013-01-22 13:29:00,
2013-01-22 08:34:00,6.0,-4.2,30.34,WSW,246,5.0,6.0,62,0.00,,,0.00,Wunderground v.1.13,2013-01-22 13:34:00,
2013-01-22 08:39:00,6.0,-4.6,30.34,WNW,284,2.0,7.0,61,0.00,,,0.00,Wunderground v.1.13,2013-01-22 13:39:00,
2013-01-22 08:44:00,6.1,-4.1,30.34,WNW,284,3.0,6.0,62,0.00,,,0.00,Wunderground v.1.13,2013-01-22 13:44:00,
2013-01-22 08:49:00,6.3,-4.0,30.34,West,270,3.0,6.0,62,0.00,,,0.00,Wunderground v.1.13,2013-01-22 13:49:00,
2013-01-22 08:54:00,6.5,-3.4,30.34,West,267,3.0,5.0,63,0.00,,,0.00,Wunderground v.1.13,2013-01-22 13:54:00,
2013-01-22 08:59:00,6.7,-3.6,30.34,WNW,290,3.0,8.0,62,0.00,,,0.00,Wunderground v.1.13,2013-01-22 13:59:00,
2013-01-22 09:04:00,6.9,-3.7,30.34,WNW,298,5.0,7.0,61,0.00,,,0.00,Wunderground v.1.13,2013-01-22 14:04:00,
2013-01-22 09:09:00,6.9,-4.1,30.34,WNW,289,4.0,8.0,60,0.00,,,0.00,Wunderground v.1.13,2013-01-22 14:09:00,
2013-01-22 09:14:00,7.0,-3.6,30.35,WNW,286,3.0,7.0,61,0.00,,,0.00,Wunderground v.1.13,2013-01-22 14:14:00,
2013-01-22 09:19:00,7.2,-3.4,30.35,WSW,248,11.0,11.0,61,0.00,,,0.00,Wunderground v.1.13,2013-01-22 14:19:00,
2013-01-22 09:24:00,7.2,-3.4,30.35,WNW,285,7.0,7.0,61,0.00,,,0.00,Wunderground v.1.13,2013-01-22 14:24:00,
2013-01-22 09:29:00,7.4,-3.6,30.35,WSW,244,2.0,7.0,60,0.00,,,0.00,Wunderground v.1.13,2013-01-22 14:29:00,
2013-01-22 09:34:00,7.6,-3.8,30.35,NW,308,4.0,9.0,59,0.00,,,0.00,Wunderground v.1.13,2013-01-22 14:34:00,
2013-01-22 09:39:00,7.7,-3.3,30.35,West,280,7.0,9.0,60,0.00,,,0.00,Wunderground v.1.13,2013-01-22 14:39:00,
2013-01-22 09:44:00,7.4,-4.0,30.36,West,265,6.0,6.0,59,0.00,,,0.00,Wunderground v.1.13,2013-01-22 14:44:00,
2013-01-22 09:49:00,7.6,-3.8,30.36,WNW,290,5.0,7.0,59,0.00,,,0.00,Wunderground v.1.13,2013-01-22 14:49:00,
2013-01-22 09:54:00,7.7,-3.7,30.36,WSW,248,3.0,7.0,59,0.00,,,0.00,Wunderground v.1.13,2013-01-22 14:54:00,
2013-01-22 09:59:00,8.1,-2.9,30.37,WSW,258,3.0,7.0,60,0.00,,,0.00,Wunderground v.1.13,2013-01-22 14:59:00,
2013-01-22 10:04:00,8.6,-2.8,30.37,West,259,4.0,8.0,59,0.00,,,0.00,Wunderground v.1.13,2013-01-22 15:04:00,
2013-01-22 10:09:00,9.0,-2.4,30.37,WSW,240,5.0,7.0,59,0.00,,,0.00,Wunderground v.1.13,2013-01-22 15:09:00,
2013-01-22 10:14:00,8.8,-3.4,30.37,West,278,4.0,10.0,57,0.00,,,0.00,Wunderground v.1.13,2013-01-22 15:14:00,
2013-01-22 10:19:00,8.6,-3.2,30.37,WSW,242,3.0,9.0,58,0.00,,,0.00,Wunderground v.1.13,2013-01-22 15:19:00,
2013-01-22 10:24:00,9.0,-2.4,30.37,WSW,244,2.0,5.0,59,0.00,,,0.00,Wunderground v.1.13,2013-01-22 15:24:00,
2013-01-22 10:29:00,9.0,-2.8,30.37,WNW,285,3.0,11.0,58,0.00,,,0.00,Wunderground v.1.13,2013-01-22 15:29:00,
2013-01-22 10:34:00,8.8,-2.6,30.37,West,260,2.0,5.0,59,0.00,,,0.00,Wunderground v.1.13,2013-01-22 15:34:00,
2013-01-22 10:39:00,9.0,-2.4,30.37,WSW,247,4.0,7.0,59,0.00,,,0.00,Wunderground v.1.13,2013-01-22 15:39:00,
2013-01-22 10:44:00,9.2,-2.6,30.37,WSW,248,4.0,6.0,58,0.00,,,0.00,Wunderground v.1.13,2013-01-22 15:44:00,
2013-01-22 10:49:00,9.5,-2.0,30.37,WSW,250,5.0,6.0,59,0.00,,,0.00,Wunderground v.1.13,2013-01-22 15:49:00,
2013-01-22 10:54:00,9.3,-2.9,30.37,WSW,250,4.0,6.0,57,0.00,,,0.00,Wunderground v.1.13,2013-01-22 15:54:00,
2013-01-22 10:59:00,9.2,-3.0,30.38,WSW,250,10.0,10.0,57,0.00,,,0.00,Wunderground v.1.13,2013-01-22 15:59:00,
2013-01-22 11:04:00,9.2,-2.2,30.38,WSW,250,4.0,6.0,59,0.00,,,0.00,Wunderground v.1.13,2013-01-22 16:04:00,
2013-01-22 11:09:00,9.3,-2.5,30.38,WSW,250,6.0,6.0,58,0.00,,,0.00,Wunderground v.1.13,2013-01-22 16:09:00,
2013-01-22 11:14:00,9.5,-2.3,30.38,WSW,255,4.0,8.0,58,0.00,,,0.00,Wunderground v.1.13,2013-01-22 16:14:00,
2013-01-22 11:19:00,9.7,-2.1,30.38,SW,234,5.0,8.0,58,0.00,,,0.00,Wunderground v.1.13,2013-01-22 16:19:00,
2013-01-22 11:24:00,10.0,-1.9,30.38,SW,235,6.0,8.0,58,0.00,,,0.00,Wunderground v.1.13,2013-01-22 16:24:00,
2013-01-22 11:29:00,8.5,-0.2,30.38,North,360,6.0,14.0,67,0.00,,,0.00,Wunderground v.1.13,2013-01-22 16:29:00,
2013-01-22 11:34:00,8.9,0.2,30.38,North,360,13.0,20.0,67,0.00,,,0.00,Wunderground v.1.13,2013-01-22 16:34:00,
2013-01-22 11:40:00,8.9,-0.2,30.38,North,360,3.0,15.0,66,0.00,,,0.00,Wunderground v.1.13,2013-01-22 16:40:00,
2013-01-22 11:45:00,8.9,-0.2,30.37,North,360,10.0,20.0,66,0.00,,,0.00,Wunderground v.1.13,2013-01-22 16:45:00,
2013-01-22 11:50:00,8.4,-0.6,30.37,North,360,6.0,21.0,66,0.00,,,0.00,Wunderground v.1.13,2013-01-22 16:50:00,
2013-01-22 11:55:00,9.6,0.8,30.37,North,360,12.0,12.0,67,0.00,,,0.00,Wunderground v.1.13,2013-01-22 16:55:00,
2013-01-22 12:01:00,9.3,-0.4,30.37,North,360,10.0,16.0,64,0.00,,,0.00,Wunderground v.1.13,2013-01-22 17:01:00,
2013-01-22 12:06:00,9.2,0.1,30.37,North,360,13.0,14.0,66,0.00,,,0.00,Wunderground v.1.13,2013-01-22 17:06:00,
2013-01-22 12:11:00,8.8,-1.2,30.37,North,360,16.0,17.0,63,0.00,,,0.00,Wunderground v.1.13,2013-01-22 17:11:00,
2013-01-22 12:17:00,8.6,-1.4,30.36,North,360,13.0,14.0,63,0.00,,,0.00,Wunderground v.1.13,2013-01-22 17:17:00,
2013-01-22 12:22:00,9.2,-0.5,30.36,North,360,11.0,13.0,64,0.00,,,0.00,Wunderground v.1.13,2013-01-22 17:22:00,
2013-01-22 12:27:00,9.6,-0.1,30.36,North,360,14.0,14.0,64,0.00,,,0.00,Wunderground v.1.13,2013-01-22 17:27:00,
2013-01-22 12:32:00,9.8,0.0,30.36,North,360,15.0,16.0,64,0.00,,,0.00,Wunderground v.1.13,2013-01-22 17:32:00,
2013-01-22 12:37:00,9.8,0.4,30.36,North,360,8.0,11.0,65,0.00,,,0.00,Wunderground v.1.13,2013-01-22 17:37:00,
2013-01-22 12:42:00,10.2,0.8,30.36,North,360,19.0,19.0,65,0.00,,,0.00,Wunderground v.1.13,2013-01-22 17:42:00,
2013-01-22 12:47:00,10.0,-0.4,30.36,North,360,12.0,12.0,62,0.00,,,0.00,Wunderground v.1.13,2013-01-22 17:47:00,
2013-01-22 12:52:00,9.7,-1.4,30.36,North,360,7.0,14.0,60,0.00,,,0.00,Wunderground v.1.13,2013-01-22 17:52:00,
2013-01-22 12:58:00,10.0,-0.8,30.35,North,360,16.0,16.0,61,0.00,,,0.00,Wunderground v.1.13,2013-01-22 17:58:00,
2013-01-22 13:03:00,10.2,-0.6,30.35,North,360,13.0,15.0,61,0.00,,,0.00,Wunderground v.1.13,2013-01-22 18:03:00,
2013-01-22 13:08:00,10.4,-0.1,30.35,North,360,19.0,19.0,62,0.00,,,0.00,Wunderground v.1.13,2013-01-22 18:08:00,
2013-01-22 13:13:00,10.2,0.1,30.34,North,360,6.0,17.0,63,0.00,,,0.00,Wunderground v.1.13,2013-01-22 18:13:00,
2013-01-22 13:18:00,10.9,0.4,30.34,North,360,11.0,18.0,62,0.00,,,0.00,Wunderground v.1.13,2013-01-22 18:18:00,
2013-01-22 13:23:00,10.7,0.2,30.34,North,360,17.0,17.0,62,0.00,,,0.00,Wunderground v.1.13,2013-01-22 18:23:00,
2013-01-22 13:28:00,10.7,0.2,30.34,North,360,14.0,15.0,62,0.00,,,0.00,Wunderground v.1.13,2013-01-22 18:28:00,
2013-01-22 13:33:00,10.9,0.8,30.34,North,360,14.0,23.0,63,0.00,,,0.00,Wunderground v.1.13,2013-01-22 18:33:00,
2013-01-22 13:38:00,10.3,1.2,30.34,North,360,13.0,20.0,66,0.00,,,0.00,Wunderground v.1.13,2013-01-22 18:38:00,
2013-01-22 13:43:00,11.1,1.6,30.34,North,360,16.0,18.0,65,0.00,,,0.00,Wunderground v.1.13,2013-01-22 18:43:00,
2013-01-22 13:48:00,11.3,1.5,30.34,North,360,12.0,17.0,64,0.00,,,0.00,Wunderground v.1.13,2013-01-22 18:48:00,
2013-01-22 13:53:00,11.4,0.2,30.34,North,360,18.0,18.0,60,0.00,,,0.00,Wunderground v.1.13,2013-01-22 18:53:00,
2013-01-22 13:58:00,11.7,1.5,30.33,North,360,15.0,16.0,63,0.00,,,0.00,Wunderground v.1.13,2013-01-22 18:58:00,
2013-01-22 14:03:00,10.0,0.9,30.33,North,360,11.0,16.0,66,0.00,,,0.00,Wunderground v.1.13,2013-01-22 19:03:00,
2013-01-22 14:08:00,9.9,0.5,30.33,North,360,4.0,14.0,65,0.00,,,0.00,Wunderground v.1.13,2013-01-22 19:08:00,
2013-01-22 14:13:00,10.5,0.7,30.33,North,360,7.0,13.0,64,0.00,,,0.00,Wunderground v.1.13,2013-01-22 19:13:00,
2013-01-22 14:18:00,10.2,0.4,30.33,North,360,11.0,17.0,64,0.00,,,0.00,Wunderground v.1.13,2013-01-22 19:18:00,
2013-01-22 14:23:00,10.2,0.4,30.33,North,360,12.0,14.0,64,0.00,,,0.00,Wunderground v.1.13,2013-01-22 19:23:00,
2013-01-22 14:28:00,10.6,0.1,30.32,North,360,9.0,17.0,62,0.00,,,0.00,Wunderground v.1.13,2013-01-22 19:28:00,
2013-01-22 14:33:00,10.9,0.1,30.32,North,360,15.0,18.0,61,0.00,,,0.00,Wunderground v.1.13,2013-01-22 19:33:00,
2013-01-22 14:38:00,10.9,-0.3,30.32,North,360,12.0,14.0,60,0.00,,,0.00,Wunderground v.1.13,2013-01-22 19:38:00,
2013-01-22 14:43:00,11.3,-0.3,30.32,North,360,16.0,18.0,59,0.00,,,0.00,Wunderground v.1.13,2013-01-22 19:43:00,
2013-01-22 14:48:00,11.7,0.1,30.32,North,360,6.0,12.0,59,0.00,,,0.00,Wunderground v.1.13,2013-01-22 19:48:00,
2013-01-22 14:53:00,12.7,0.7,30.32,North,360,16.0,16.0,58,0.00,,,0.00,Wunderground v.1.13,2013-01-22 19:53:00,
2013-01-22 14:58:00,12.6,0.6,30.33,North,360,12.0,17.0,58,0.00,,,0.00,Wunderground v.1.13,2013-01-22 19:58:00,
2013-01-22 15:03:00,11.9,0.3,30.33,North,360,15.0,16.0,59,0.00,,,0.00,Wunderground v.1.13,2013-01-22 20:03:00,
2013-01-22 15:08:00,11.6,0.7,30.33,North,360,12.0,15.0,61,0.00,,,0.00,Wunderground v.1.13,2013-01-22 20:08:00,
2013-01-22 15:13:00,11.2,0.4,30.34,North,360,17.0,21.0,61,0.00,,,0.00,Wunderground v.1.13,2013-01-22 20:13:00,
2013-01-22 15:18:00,11.1,0.6,30.34,North,360,7.0,16.0,62,0.00,,,0.00,Wunderground v.1.13,2013-01-22 20:18:00,
2013-01-22 15:23:00,11.6,0.7,30.34,North,360,12.0,18.0,61,0.00,,,0.00,Wunderground v.1.13,2013-01-22 20:23:00,
2013-01-22 15:28:00,11.6,0.7,30.34,North,360,10.0,18.0,61,0.00,,,0.00,Wunderground v.1.13,2013-01-22 20:28:00,
2013-01-22 15:33:00,11.9,0.7,30.34,North,360,14.0,16.0,60,0.00,,,0.00,Wunderground v.1.13,2013-01-22 20:33:00,
2013-01-22 15:38:00,11.9,0.3,30.34,North,360,11.0,17.0,59,0.00,,,0.00,Wunderground v.1.13,2013-01-22 20:38:00,
2013-01-22 15:43:00,11.8,-0.2,30.34,North,360,13.0,14.0,58,0.00,,,0.00,Wunderground v.1.13,2013-01-22 20:43:00,
2013-01-22 15:48:00,12.4,0.8,30.34,North,360,6.0,13.0,59,0.00,,,0.00,Wunderground v.1.13,2013-01-22 20:48:00,
2013-01-22 15:53:00,13.3,1.3,30.34,North,360,12.0,20.0,58,0.00,,,0.00,Wunderground v.1.13,2013-01-22 20:53:00,
2013-01-22 15:58:00,13.4,1.0,30.34,North,360,9.0,16.0,57,0.00,,,0.00,Wunderground v.1.13,2013-01-22 20:58:00,
2013-01-22 16:03:00,13.6,1.5,30.34,North,360,1.0,14.0,58,0.00,,,0.00,Wunderground v.1.13,2013-01-22 21:03:00,
2013-01-22 16:08:00,13.5,0.7,30.34,North,360,6.0,17.0,56,0.00,,,0.00,Wunderground v.1.13,2013-01-22 21:08:00,
2013-01-22 16:13:00,13.1,0.3,30.34,North,360,12.0,16.0,56,0.00,,,0.00,Wunderground v.1.13,2013-01-22 21:13:00,
2013-01-22 16:19:00,12.7,0.3,30.34,North,360,9.0,12.0,57,0.00,,,0.00,Wunderground v.1.13,2013-01-22 21:19:00,
2013-01-22 16:24:00,12.4,0.0,30.34,North,360,10.0,18.0,57,0.00,,,0.00,Wunderground v.1.13,2013-01-22 21:24:00,
2013-01-22 16:29:00,12.7,-0.1,30.34,North,360,11.0,19.0,56,0.00,,,0.00,Wunderground v.1.13,2013-01-22 21:29:00,
2013-01-22 16:31:00,12.8,0.4,30.34,North,360,16.0,18.0,57,0.00,,,0.00,Wunderground v.1.13,2013-01-22 21:31:00,
2013-01-22 16:37:00,13.1,0.3,30.34,North,360,14.0,14.0,56,0.00,,,0.00,Wunderground v.1.13,2013-01-22 21:37:00,
2013-01-22 16:42:00,13.4,0.6,30.34,North,360,10.0,12.0,56,0.00,,,0.00,Wunderground v.1.13,2013-01-22 21:42:00,
2013-01-22 16:47:00,13.2,0.0,30.34,North,360,17.0,17.0,55,0.00,,,0.00,Wunderground v.1.13,2013-01-22 21:47:00,
2013-01-22 16:52:00,13.5,0.7,30.34,North,360,2.0,13.0,56,0.00,,,0.00,Wunderground v.1.13,2013-01-22 21:52:00,
2013-01-22 16:57:00,13.0,0.2,30.34,North,360,5.0,12.0,56,0.00,,,0.00,Wunderground v.1.13,2013-01-22 21:57:00,
2013-01-22 17:02:00,13.2,0.8,30.34,North,360,9.0,12.0,57,0.00,,,0.00,Wunderground v.1.13,2013-01-22 22:02:00,
2013-01-22 17:07:00,12.8,0.4,30.34,North,360,17.0,17.0,57,0.00,,,0.00,Wunderground v.1.13,2013-01-22 22:07:00,
2013-01-22 17:12:00,12.4,0.4,30.34,North,360,13.0,13.0,58,0.00,,,0.00,Wunderground v.1.13,2013-01-22 22:12:00,
2013-01-22 17:17:00,12.4,0.4,30.34,North,360,11.0,13.0,58,0.00,,,0.00,Wunderground v.1.13,2013-01-22 22:17:00,
2013-01-22 17:22:00,12.0,0.0,30.34,North,360,11.0,16.0,58,0.00,,,0.00,Wunderground v.1.13,2013-01-22 22:22:00,
2013-01-22 17:27:00,11.9,-0.1,30.34,North,360,5.0,12.0,58,0.00,,,0.00,Wunderground v.1.13,2013-01-22 22:27:00,
2013-01-22 17:32:00,12.4,-3.2,30.34,WSW,255,2.0,8.0,49,0.00,,,0.00,Wunderground v.1.13,2013-01-22 22:32:00,
2013-01-22 17:38:00,12.3,-2.8,30.34,WSW,255,4.0,5.0,50,0.00,,,0.00,Wunderground v.1.13,2013-01-22 22:38:00,
2013-01-22 17:43:00,12.1,-2.6,30.35,WSW,255,2.0,3.0,51,0.00,,,0.00,Wunderground v.1.13,2013-01-22 22:43:00,
2013-01-22 17:48:00,12.1,-2.6,30.35,SW,234,3.0,5.0,51,0.00,,,0.00,Wunderground v.1.13,2013-01-22 22:48:00,
2013-01-22 17:53:00,11.9,-2.4,30.35,West,263,1.0,5.0,52,0.00,,,0.00,Wunderground v.1.13,2013-01-22 22:53:00,
2013-01-22 17:58:00,11.7,-3.0,30.34,WSW,240,3.0,6.0,51,0.00,,,0.00,Wunderground v.1.13,2013-01-22 22:58:00,
2013-01-22 18:03:00,11.7,-2.6,30.34,WSW,240,1.0,4.0,52,0.00,,,0.00,Wunderground v.1.13,2013-01-22 23:03:00,
2013-01-22 18:08:00,11.7,-2.6,30.34,WSW,240,2.0,4.0,52,0.00,,,0.00,Wunderground v.1.13,2013-01-22 23:08:00,
2013-01-22 18:13:00,11.7,-1.8,30.35,WSW,240,1.0,3.0,54,0.00,,,0.00,Wunderground v.1.13,2013-01-22 23:13:00,
2013-01-22 18:18:00,11.6,-1.9,30.35,WSW,240,4.0,4.0,54,0.00,,,0.00,Wunderground v.1.13,2013-01-22 23:18:00,
2013-01-22 18:23:00,11.6,-1.9,30.35,WSW,240,2.0,3.0,54,0.00,,,0.00,Wunderground v.1.13,2013-01-22 23:23:00,
2013-01-22 18:28:00,11.6,-1.9,30.36,WSW,240,2.0,5.0,54,0.00,,,0.00,Wunderground v.1.13,2013-01-22 23:28:00,
2013-01-22 18:33:00,11.4,-2.0,30.36,WSW,240,1.0,2.0,54,0.00,,,0.00,Wunderground v.1.13,2013-01-22 23:33:00,
2013-01-22 18:38:00,11.4,-1.7,30.36,WSW,240,3.0,3.0,55,0.00,,,0.00,Wunderground v.1.13,2013-01-22 23:38:00,
2013-01-22 18:43:00,11.2,-1.8,30.36,WSW,240,3.0,3.0,55,0.00,,,0.00,Wunderground v.1.13,2013-01-22 23:43:00,
2013-01-22 18:48:00,11.2,-1.8,30.36,WSW,240,0.0,5.0,55,0.00,,,0.00,Wunderground v.1.13,2013-01-22 23:48:00,
2013-01-22 18:53:00,11.4,-1.3,30.36,WSW,240,0.0,2.0,56,0.00,,,0.00,Wunderground v.1.13,2013-01-22 23:53:00,
2013-01-22 18:58:00,11.4,-1.3,30.36,WSW,240,0.0,3.0,56,0.00,,,0.00,Wunderground v.1.13,2013-01-22 23:58:00,
2013-01-22 19:04:00,11.4,-1.3,30.36,WSW,240,0.0,6.0,56,0.00,,,0.00,Wunderground v.1.13,2013-01-23 00:04:00,
2013-01-22 19:09:00,11.4,-1.7,30.36,WSW,240,0.0,3.0,55,0.00,,,0.00,Wunderground v.1.13,2013-01-23 00:09:00,
2013-01-22 19:14:00,11.4,-1.3,30.36,WSW,240,2.0,3.0,56,0.00,,,0.00,Wunderground v.1.13,2013-01-23 00:14:00,
2013-01-22 19:19:00,11.4,-1.7,30.36,WSW,240,1.0,3.0,55,0.00,,,0.00,Wunderground v.1.13,2013-01-23 00:19:00,
2013-01-22 19:24:00,11.4,-1.3,30.36,WSW,240,2.0,4.0,56,0.00,,,0.00,Wunderground v.1.13,2013-01-23 00:24:00,
2013-01-22 19:29:00,11.6,-1.5,30.36,WSW,240,1.0,5.0,55,0.00,,,0.00,Wunderground v.1.13,2013-01-23 00:29:00,
2013-01-22 19:34:00,11.6,-1.5,30.36,WSW,240,3.0,4.0,55,0.00,,,0.00,Wunderground v.1.13,2013-01-23 00:34:00,
2013-01-22 19:39:00,11.6,-1.5,30.36,WSW,240,0.0,4.0,55,0.00,,,0.00,Wunderground v.1.13,2013-01-23 00:39:00,
2013-01-22 19:44:00,11.7,-1.8,30.35,WSW,240,2.0,4.0,54,0.00,,,0.00,Wunderground v.1.13,2013-01-23 00:44:00,
2013-01-22 19:49:00,11.7,-1.4,30.35,WSW,240,2.0,4.0,55,0.00,,,0.00,Wunderground v.1.13,2013-01-23 00:49:00,
2013-01-22 19:54:00,11.7,-1.4,30.35,WSW,240,4.0,5.0,55,0.00,,,0.00,Wunderground v.1.13,2013-01-23 00:54:00,
2013-01-22 19:59:00,11.7,-1.8,30.35,WSW,240,5.0,5.0,54,0.00,,,0.00,Wunderground v.1.13,2013-01-23 00:59:00,
2013-01-22 20:04:00,11.7,-1.8,30.35,WSW,240,3.0,3.0,54,0.00,,,0.00,Wunderground v.1.13,2013-01-23 01:04:00,
2013-01-22 20:09:00,11.7,-1.8,30.35,WSW,240,1.0,4.0,54,0.00,,,0.00,Wunderground v.1.13,2013-01-23 01:09:00,
2013-01-22 20:14:00,11.7,-1.8,30.36,WSW,241,3.0,5.0,54,0.00,,,0.00,Wunderground v.1.13,2013-01-23 01:14:00,
2013-01-22 20:19:00,11.7,-1.8,30.36,WSW,241,0.0,5.0,54,0.00,,,0.00,Wunderground v.1.13,2013-01-23 01:19:00,
2013-01-22 20:24:00,11.7,-1.8,30.36,WSW,241,3.0,4.0,54,0.00,,,0.00,Wunderground v.1.13,2013-01-23 01:24:00,
2013-01-22 20:29:00,11.7,-1.4,30.35,WSW,241,1.0,5.0,55,0.00,,,0.00,Wunderground v.1.13,2013-01-23 01:29:00,
2013-01-22 20:34:00,11.6,-1.9,30.35,WSW,241,0.0,4.0,54,0.00,,,0.00,Wunderground v.1.13,2013-01-23 01:34:00,
2013-01-22 20:39:00,11.6,-1.9,30.35,WSW,241,4.0,4.0,54,0.00,,,0.00,Wunderground v.1.13,2013-01-23 01:39:00,
2013-01-22 20:44:00,11.6,-1.9,30.35,West,281,4.0,7.0,54,0.00,,,0.00,Wunderground v.1.13,2013-01-23 01:44:00,
2013-01-22 20:49:00,11.6,-1.9,30.35,WSW,256,1.0,5.0,54,0.00,,,0.00,Wunderground v.1.13,2013-01-23 01:49:00,
2013-01-22 21:00:00,11.6,-1.5,30.34,WNW,295,2.0,2.0,55,0.00,,,0.00,Wunderground v.1.13,2013-01-23 02:00:00,
2013-01-22 21:06:00,11.4,-1.7,30.34,WNW,294,4.0,4.0,55,0.00,,,0.00,Wunderground v.1.13,2013-01-23 02:06:00,
2013-01-22 21:11:00,11.4,-1.7,30.34,WNW,295,0.0,4.0,55,0.00,,,0.00,Wunderground v.1.13,2013-01-23 02:11:00,
2013-01-22 21:17:00,11.4,-1.7,30.35,WNW,294,0.0,3.0,55,0.00,,,0.00,Wunderground v.1.13,2013-01-23 02:17:00,
2013-01-22 21:22:00,11.4,-1.7,30.35,WNW,294,1.0,4.0,55,0.00,,,0.00,Wunderground v.1.13,2013-01-23 02:22:00,
2013-01-22 21:27:00,11.4,-1.7,30.35,WNW,294,1.0,3.0,55,0.00,,,0.00,Wunderground v.1.13,2013-01-23 02:27:00,
2013-01-22 21:34:00,11.4,-1.7,30.35,WNW,295,1.0,2.0,55,0.00,,,0.00,Wunderground v.1.13,2013-01-23 02:34:00,
2013-01-22 21:39:00,11.4,-1.7,30.35,WNW,295,0.0,2.0,55,0.00,,,0.00,Wunderground v.1.13,2013-01-23 02:39:00,
2013-01-22 21:44:00,11.4,-1.7,30.35,WNW,295,0.0,3.0,55,0.00,,,0.00,Wunderground v.1.13,2013-01-23 02:44:00,
2013-01-22 21:49:00,11.6,-1.1,30.35,WNW,295,0.0,1.0,56,0.00,,,0.00,Wunderground v.1.13,2013-01-23 02:49:00,
2013-01-22 21:54:00,11.6,-1.1,30.35,WNW,295,3.0,4.0,56,0.00,,,0.00,Wunderground v.1.13,2013-01-23 02:54:00,
2013-01-22 21:59:00,11.6,-1.1,30.35,WNW,295,2.0,2.0,56,0.00,,,0.00,Wunderground v.1.13,2013-01-23 02:59:00,
2013-01-22 22:04:00,11.6,-1.1,30.35,WNW,295,0.0,3.0,56,0.00,,,0.00,Wunderground v.1.13,2013-01-23 03:04:00,
2013-01-22 22:09:00,11.6,-1.1,30.35,WNW,295,1.0,3.0,56,0.00,,,0.00,Wunderground v.1.13,2013-01-23 03:09:00,
2013-01-22 22:14:00,11.6,-1.1,30.35,WSW,254,0.0,2.0,56,0.00,,,0.00,Wunderground v.1.13,2013-01-23 03:14:00,
2013-01-22 22:19:00,11.6,-1.1,30.35,West,273,1.0,6.0,56,0.00,,,0.00,Wunderground v.1.13,2013-01-23 03:19:00,
2013-01-22 22:24:00,11.6,-1.5,30.35,West,268,2.0,4.0,55,0.00,,,0.00,Wunderground v.1.13,2013-01-23 03:24:00,
2013-01-22 22:29:00,11.6,-1.5,30.36,West,268,1.0,4.0,55,0.00,,,0.00,Wunderground v.1.13,2013-01-23 03:29:00,
2013-01-22 22:34:00,11.7,-1.4,30.36,West,268,0.0,3.0,55,0.00,,,0.00,Wunderground v.1.13,2013-01-23 03:34:00,
2013-01-22 22:39:00,11.7,-1.0,30.36,West,268,3.0,3.0,56,0.00,,,0.00,Wunderground v.1.13,2013-01-23 03:39:00,
2013-01-22 22:44:00,11.6,-1.5,30.36,West,268,1.0,4.0,55,0.00,,,0.00,Wunderground v.1.13,2013-01-23 03:44:00,
2013-01-22 22:49:00,11.6,-1.5,30.36,West,268,2.0,6.0,55,0.00,,,0.00,Wunderground v.1.13,2013-01-23 03:49:00,
2013-01-22 22:54:00,11.4,-1.3,30.36,West,268,1.0,3.0,56,0.00,,,0.00,Wunderground v.1.13,2013-01-23 03:54:00,
2013-01-22 22:59:00,11.4,-1.3,30.36,West,268,1.0,2.0,56,0.00,,,0.00,Wunderground v.1.13,2013-01-23 03:59:00,
2013-01-22 23:04:00,11.4,-1.3,30.36,West,268,1.0,4.0,56,0.00,,,0.00,Wunderground v.1.13,2013-01-23 04:04:00,
2013-01-22 23:09:00,11.4,-1.3,30.36,West,268,1.0,4.0,56,0.00,,,0.00,Wunderground v.1.13,2013-01-23 04:09:00,
2013-01-22 23:15:00,11.4,-0.9,30.36,West,268,0.0,2.0,57,0.00,,,0.00,Wunderground v.1.13,2013-01-23 04:15:00,
2013-01-22 23:20:00,11.4,-0.9,30.36,West,268,3.0,3.0,57,0.00,,,0.00,Wunderground v.1.13,2013-01-23 04:20:00,
2013-01-22 23:25:00,11.4,-0.9,30.36,West,268,0.0,3.0,57,0.00,,,0.00,Wunderground v.1.13,2013-01-23 04:25:00,
2013-01-22 23:30:00,11.4,-0.9,30.36,West,268,1.0,4.0,57,0.00,,,0.00,Wunderground v.1.13,2013-01-23 04:30:00,
2013-01-22 23:35:00,11.4,-0.9,30.36,West,268,2.0,3.0,57,0.00,,,0.00,Wunderground v.1.13,2013-01-23 04:35:00,
2013-01-22 23:40:00,11.4,-0.5,30.36,West,268,1.0,3.0,58,0.00,,,0.00,Wunderground v.1.13,2013-01-23 04:40:00,
2013-01-22 23:45:00,11.2,-0.7,30.36,West,268,0.0,1.0,58,0.00,,,0.00,Wunderground v.1.13,2013-01-23 04:45:00,
2013-01-22 23:50:00,11.2,-0.7,30.36,West,268,1.0,1.0,58,0.00,,,0.00,Wunderground v.1.13,2013-01-23 04:50:00,
2013-01-22 23:55:00,11.2,-0.7,30.36,West,268,2.0,2.0,58,0.00,,,0.00,Wunderground v.1.13,2013-01-23 04:55:00,